Ceduna Airport
YCDU : now visible

Airfield :











YOU CAN JOIN US ON...

 
LOGIN :

Register | Disclaimer

   EN    FR    IT 

 









Legend :    VFR   Marginal VFR   IFR   Intensive IFR   Very Intensive IFR
Visi :
Ceiling :
>= 8 km
>= 3000ft
5 to 8 km
1000 to 3000 ft
1500m to 5 km
500 to 1000 ft
800 to 1500m
200 to 500 ft
< 800m
< 200 ft
Symbols :   Thunderstorms  Fog  Heavy snow  Heavy precipitations  Wind > 20 kt






- Airport Elevation : 77 ft
- IATA code : CED


YCDU - Ceduna

CURRENT METAR :
  • 210200Z AUTO 09010KT 9999 // BKN010 BKN014 23/21 Q1013

EXPIRED METARs :
  • 210100Z AUTO 09007KT 9999 // SCT096 22/21 Q1013
  • 210000Z AUTO 12011KT 9999 // SCT014 22/21 Q1013 RERA
  • 202300Z AUTO 10012KT 8000 SHRA SCT005 SCT033 OVC100 21/20 Q1014

TAF N/A
YMMM FIR / Oceania



MET'MAP, your aeronautical weather chart ! - Copyright ORBIFLY December 2007 - Disclaimer

ORBIFLY MET'MAP TEAM :

Programming & Development : Alexandra Zaïnal
Concept & original design : Baudouin d'Aumeries
Assistance for programming : Marc-Olivier Méhu
Technical & hardware support : Manuel Goepfert

Contact : metmap@orbifly.com




SOURCES & CREDITS :

   NOAA       Earth
Advisory